LIMZ/CUF METAR and TAF weather

Enter ICAO airport designator
Station Type Date Time Source
LIMZ METAR 2021/05/10 23:50 UTC NOAA

LIMZ 102350Z AUTO VRB02KT 9999 DZ OVC008/// 12/12 Q1012


Station Type Date Time Source
LIMZ Decoded METAR 2021/05/10 23:50 UTC NOAA

Cuneo / Levaldigi, Italy (LIMZ) 44-32-47N 007-37-20E
May 10, 2021 - 07:50 PM EDT / 2021.05.10 2350 UTC
Wind: Variable at 2 MPH (2 KT):0
Visibility: greater than 7 mile(s):0
Sky conditions: overcast
Weather: drizzle
Temperature: 53 F (12 C)
Dew Point: 53 F (12 C)
Relative Humidity: 100%
Pressure (altimeter): 29.88 in. Hg (1012 hPa)
ob: LIMZ 102350Z AUTO VRB02KT 9999 DZ OVC008/// 12/12 Q1012
cycle: 0

Station Type Date Time Source
LIMZ TAF 2021/05/10 18:21 UTC NOAA

TAF LIMZ 101700Z 1018/1118 VRB05KT 6000 BKN025
TEMPO 1018/1112 3000 SHRA

Example: see airport list